sensor_id;sensor_type;location;lat;lon;timestamp;P1;durP1;ratioP1;P2;durP2;ratioP2
2944;SDS011;1482;51.398;7.128;2023-05-06T00:00:34;55.60;;;29.57;;
2944;SDS011;1482;51.398;7.128;2023-05-06T00:03:00;59.10;;;30.70;;
2944;SDS011;1482;51.398;7.128;2023-05-06T00:05:25;57.73;;;28.90;;
2944;SDS011;1482;51.398;7.128;2023-05-06T00:07:51;62.20;;;30.43;;
2944;SDS011;1482;51.398;7.128;2023-05-06T00:10:17;55.23;;;30.87;;
2944;SDS011;1482;51.398;7.128;2023-05-06T00:12:43;56.90;;;31.57;;
2944;SDS011;1482;51.398;7.128;2023-05-06T00:15:09;63.63;;;31.40;;
2944;SDS011;1482;51.398;7.128;2023-05-06T00:17:34;52.07;;;28.07;;
2944;SDS011;1482;51.398;7.128;2023-05-06T00:20:00;51.57;;;29.80;;
2944;SDS011;1482;51.398;7.128;2023-05-06T00:22:27;60.43;;;31.33;;
2944;SDS011;1482;51.398;7.128;2023-05-06T00:24:53;55.33;;;29.93;;
2944;SDS011;1482;51.398;7.128;2023-05-06T00:27:18;52.87;;;28.43;;
2944;SDS011;1482;51.398;7.128;2023-05-06T00:29:44;60.07;;;31.00;;
2944;SDS011;1482;51.398;7.128;2023-05-06T00:32:09;74.17;;;32.77;;
2944;SDS011;1482;51.398;7.128;2023-05-06T00:34:35;77.87;;;32.30;;
2944;SDS011;1482;51.398;7.128;2023-05-06T00:37:01;72.90;;;34.50;;
2944;SDS011;1482;51.398;7.128;2023-05-06T00:39:27;76.47;;;33.83;;
2944;SDS011;1482;51.398;7.128;2023-05-06T00:41:57;81.40;;;32.93;;
2944;SDS011;1482;51.398;7.128;2023-05-06T00:44:23;89.50;;;32.97;;
2944;SDS011;1482;51.398;7.128;2023-05-06T00:46:49;79.20;;;32.00;;
2944;SDS011;1482;51.398;7.128;2023-05-06T00:49:15;79.03;;;31.90;;
2944;SDS011;1482;51.398;7.128;2023-05-06T00:51:40;71.67;;;30.50;;
2944;SDS011;1482;51.398;7.128;2023-05-06T00:54:06;77.50;;;32.07;;
2944;SDS011;1482;51.398;7.128;2023-05-06T00:56:31;87.93;;;32.87;;
2944;SDS011;1482;51.398;7.128;2023-05-06T00:58:57;83.27;;;33.27;;
2944;SDS011;1482;51.398;7.128;2023-05-06T01:01:23;84.07;;;33.40;;
2944;SDS011;1482;51.398;7.128;2023-05-06T01:03:51;84.30;;;33.10;;
2944;SDS011;1482;51.398;7.128;2023-05-06T01:09:20;75.37;;;31.50;;
2944;SDS011;1482;51.398;7.128;2023-05-06T01:14:53;79.30;;;34.60;;
2944;SDS011;1482;51.398;7.128;2023-05-06T01:17:34;87.00;;;36.17;;
2944;SDS011;1482;51.398;7.128;2023-05-06T01:20:03;75.67;;;31.67;;
2944;SDS011;1482;51.398;7.128;2023-05-06T01:22:31;90.77;;;35.60;;
2944;SDS011;1482;51.398;7.128;2023-05-06T01:25:00;89.63;;;36.07;;
2944;SDS011;1482;51.398;7.128;2023-05-06T01:27:26;88.80;;;36.17;;
2944;SDS011;1482;51.398;7.128;2023-05-06T01:29:52;79.97;;;33.87;;
2944;SDS011;1482;51.398;7.128;2023-05-06T01:34:58;66.40;;;27.30;;
2944;SDS011;1482;51.398;7.128;2023-05-06T01:40:27;65.53;;;29.80;;
2944;SDS011;1482;51.398;7.128;2023-05-06T01:42:55;56.13;;;25.03;;
2944;SDS011;1482;51.398;7.128;2023-05-06T01:45:21;70.30;;;31.10;;
2944;SDS011;1482;51.398;7.128;2023-05-06T01:47:51;76.20;;;29.80;;
2944;SDS011;1482;51.398;7.128;2023-05-06T01:50:18;67.83;;;30.50;;
2944;SDS011;1482;51.398;7.128;2023-05-06T01:52:43;70.17;;;27.73;;
2944;SDS011;1482;51.398;7.128;2023-05-06T01:55:09;55.43;;;26.23;;
2944;SDS011;1482;51.398;7.128;2023-05-06T01:57:35;55.70;;;27.67;;
2944;SDS011;1482;51.398;7.128;2023-05-06T02:00:00;62.87;;;28.80;;
2944;SDS011;1482;51.398;7.128;2023-05-06T02:02:26;75.17;;;32.37;;
2944;SDS011;1482;51.398;7.128;2023-05-06T02:04:52;74.47;;;29.43;;
2944;SDS011;1482;51.398;7.128;2023-05-06T02:07:17;83.37;;;31.90;;
2944;SDS011;1482;51.398;7.128;2023-05-06T02:09:43;78.53;;;32.60;;
2944;SDS011;1482;51.398;7.128;2023-05-06T02:12:08;70.43;;;29.23;;
2944;SDS011;1482;51.398;7.128;2023-05-06T02:14:34;55.23;;;24.37;;
2944;SDS011;1482;51.398;7.128;2023-05-06T02:17:03;48.17;;;22.23;;
2944;SDS011;1482;51.398;7.128;2023-05-06T02:19:29;89.23;;;21.47;;
2944;SDS011;1482;51.398;7.128;2023-05-06T02:21:54;50.53;;;21.73;;
2944;SDS011;1482;51.398;7.128;2023-05-06T02:24:21;49.50;;;22.63;;
2944;SDS011;1482;51.398;7.128;2023-05-06T02:26:47;59.67;;;25.10;;
2944;SDS011;1482;51.398;7.128;2023-05-06T02:29:12;50.13;;;23.50;;
2944;SDS011;1482;51.398;7.128;2023-05-06T02:31:38;67.87;;;21.47;;
2944;SDS011;1482;51.398;7.128;2023-05-06T02:34:03;41.17;;;18.47;;
2944;SDS011;1482;51.398;7.128;2023-05-06T02:36:29;38.97;;;19.47;;
2944;SDS011;1482;51.398;7.128;2023-05-06T02:38:54;50.30;;;19.93;;
2944;SDS011;1482;51.398;7.128;2023-05-06T02:41:20;44.53;;;19.57;;
2944;SDS011;1482;51.398;7.128;2023-05-06T02:43:45;32.63;;;18.93;;
2944;SDS011;1482;51.398;7.128;2023-05-06T02:46:11;31.20;;;16.87;;
2944;SDS011;1482;51.398;7.128;2023-05-06T02:48:36;27.30;;;14.87;;
2944;SDS011;1482;51.398;7.128;2023-05-06T02:51:02;54.83;;;23.73;;
2944;SDS011;1482;51.398;7.128;2023-05-06T02:53:28;52.10;;;23.23;;
2944;SDS011;1482;51.398;7.128;2023-05-06T02:55:53;63.43;;;26.77;;
2944;SDS011;1482;51.398;7.128;2023-05-06T02:58:19;67.07;;;25.17;;
2944;SDS011;1482;51.398;7.128;2023-05-06T03:00:44;75.03;;;26.47;;
2944;SDS011;1482;51.398;7.128;2023-05-06T03:03:10;64.70;;;27.30;;
2944;SDS011;1482;51.398;7.128;2023-05-06T03:05:35;69.30;;;25.77;;
2944;SDS011;1482;51.398;7.128;2023-05-06T03:08:01;73.43;;;26.73;;
2944;SDS011;1482;51.398;7.128;2023-05-06T03:10:27;69.90;;;25.30;;
2944;SDS011;1482;51.398;7.128;2023-05-06T03:12:52;80.30;;;29.77;;
2944;SDS011;1482;51.398;7.128;2023-05-06T03:15:18;72.67;;;26.77;;
2944;SDS011;1482;51.398;7.128;2023-05-06T03:17:43;68.87;;;27.87;;
2944;SDS011;1482;51.398;7.128;2023-05-06T03:20:10;65.07;;;26.67;;
2944;SDS011;1482;51.398;7.128;2023-05-06T03:22:36;70.83;;;29.47;;
2944;SDS011;1482;51.398;7.128;2023-05-06T03:25:02;65.30;;;27.57;;
2944;SDS011;1482;51.398;7.128;2023-05-06T03:27:28;68.30;;;26.73;;
2944;SDS011;1482;51.398;7.128;2023-05-06T03:29:53;75.90;;;31.00;;
2944;SDS011;1482;51.398;7.128;2023-05-06T03:32:19;74.63;;;31.33;;
2944;SDS011;1482;51.398;7.128;2023-05-06T03:34:45;70.27;;;29.73;;
2944;SDS011;1482;51.398;7.128;2023-05-06T03:37:10;73.23;;;30.70;;
2944;SDS011;1482;51.398;7.128;2023-05-06T03:39:36;72.03;;;30.67;;
2944;SDS011;1482;51.398;7.128;2023-05-06T03:42:01;62.47;;;29.40;;
2944;SDS011;1482;51.398;7.128;2023-05-06T03:44:27;53.20;;;26.43;;
2944;SDS011;1482;51.398;7.128;2023-05-06T03:46:53;59.57;;;26.13;;
2944;SDS011;1482;51.398;7.128;2023-05-06T03:49:18;53.43;;;25.20;;
2944;SDS011;1482;51.398;7.128;2023-05-06T03:51:44;58.50;;;25.40;;
2944;SDS011;1482;51.398;7.128;2023-05-06T03:54:10;65.17;;;27.00;;
2944;SDS011;1482;51.398;7.128;2023-05-06T03:56:36;54.60;;;26.40;;
2944;SDS011;1482;51.398;7.128;2023-05-06T03:59:01;62.47;;;28.73;;
2944;SDS011;1482;51.398;7.128;2023-05-06T04:01:27;69.57;;;29.67;;
2944;SDS011;1482;51.398;7.128;2023-05-06T04:03:53;61.23;;;28.30;;
2944;SDS011;1482;51.398;7.128;2023-05-06T04:06:18;58.17;;;30.00;;
2944;SDS011;1482;51.398;7.128;2023-05-06T04:08:44;66.13;;;28.67;;
2944;SDS011;1482;51.398;7.128;2023-05-06T04:11:09;68.47;;;29.17;;
2944;SDS011;1482;51.398;7.128;2023-05-06T04:13:35;61.70;;;30.07;;
2944;SDS011;1482;51.398;7.128;2023-05-06T04:16:01;61.37;;;26.73;;
2944;SDS011;1482;51.398;7.128;2023-05-06T04:18:27;63.00;;;31.63;;
2944;SDS011;1482;51.398;7.128;2023-05-06T04:20:53;56.90;;;28.50;;
2944;SDS011;1482;51.398;7.128;2023-05-06T04:23:19;50.20;;;29.37;;
2944;SDS011;1482;51.398;7.128;2023-05-06T04:25:44;43.43;;;24.57;;
2944;SDS011;1482;51.398;7.128;2023-05-06T04:28:13;36.70;;;23.03;;
2944;SDS011;1482;51.398;7.128;2023-05-06T04:30:43;27.43;;;18.93;;
2944;SDS011;1482;51.398;7.128;2023-05-06T04:33:09;23.00;;;18.80;;
2944;SDS011;1482;51.398;7.128;2023-05-06T04:35:35;23.60;;;18.03;;
2944;SDS011;1482;51.398;7.128;2023-05-06T04:38:00;20.53;;;16.50;;
2944;SDS011;1482;51.398;7.128;2023-05-06T04:40:26;16.23;;;14.30;;
2944;SDS011;1482;51.398;7.128;2023-05-06T04:42:52;17.87;;;15.07;;
2944;SDS011;1482;51.398;7.128;2023-05-06T04:45:18;18.47;;;14.60;;
2944;SDS011;1482;51.398;7.128;2023-05-06T04:47:43;17.10;;;14.20;;
2944;SDS011;1482;51.398;7.128;2023-05-06T04:50:09;15.83;;;13.30;;
2944;SDS011;1482;51.398;7.128;2023-05-06T04:52:35;14.43;;;12.13;;
2944;SDS011;1482;51.398;7.128;2023-05-06T04:55:01;14.70;;;13.30;;
2944;SDS011;1482;51.398;7.128;2023-05-06T04:57:27;12.53;;;11.23;;
2944;SDS011;1482;51.398;7.128;2023-05-06T04:59:53;15.00;;;12.30;;
2944;SDS011;1482;51.398;7.128;2023-05-06T05:02:19;14.30;;;12.53;;
2944;SDS011;1482;51.398;7.128;2023-05-06T05:04:44;15.13;;;13.63;;
2944;SDS011;1482;51.398;7.128;2023-05-06T05:07:10;13.83;;;12.53;;
2944;SDS011;1482;51.398;7.128;2023-05-06T05:09:36;13.57;;;12.20;;
2944;SDS011;1482;51.398;7.128;2023-05-06T05:12:01;12.77;;;11.57;;
2944;SDS011;1482;51.398;7.128;2023-05-06T05:14:27;15.00;;;13.60;;
2944;SDS011;1482;51.398;7.128;2023-05-06T05:16:52;12.93;;;11.60;;
2944;SDS011;1482;51.398;7.128;2023-05-06T05:19:18;14.43;;;12.63;;
2944;SDS011;1482;51.398;7.128;2023-05-06T05:21:44;16.17;;;14.83;;
2944;SDS011;1482;51.398;7.128;2023-05-06T05:24:09;16.50;;;15.10;;
2944;SDS011;1482;51.398;7.128;2023-05-06T05:26:35;15.10;;;13.70;;
2944;SDS011;1482;51.398;7.128;2023-05-06T05:29:00;14.97;;;13.70;;
2944;SDS011;1482;51.398;7.128;2023-05-06T05:31:26;14.97;;;13.70;;
2944;SDS011;1482;51.398;7.128;2023-05-06T05:33:51;15.93;;;14.57;;
2944;SDS011;1482;51.398;7.128;2023-05-06T05:36:17;14.30;;;13.10;;
2944;SDS011;1482;51.398;7.128;2023-05-06T05:38:43;15.20;;;13.90;;
2944;SDS011;1482;51.398;7.128;2023-05-06T05:41:08;11.50;;;10.50;;
2944;SDS011;1482;51.398;7.128;2023-05-06T05:43:34;12.17;;;10.97;;
2944;SDS011;1482;51.398;7.128;2023-05-06T05:45:59;11.97;;;10.97;;
2944;SDS011;1482;51.398;7.128;2023-05-06T05:48:25;13.50;;;12.10;;
2944;SDS011;1482;51.398;7.128;2023-05-06T05:50:50;11.80;;;10.70;;
2944;SDS011;1482;51.398;7.128;2023-05-06T05:53:16;12.97;;;11.70;;
2944;SDS011;1482;51.398;7.128;2023-05-06T05:55:41;13.00;;;11.90;;
2944;SDS011;1482;51.398;7.128;2023-05-06T05:58:08;12.33;;;11.33;;
2944;SDS011;1482;51.398;7.128;2023-05-06T06:00:35;11.67;;;10.67;;
2944;SDS011;1482;51.398;7.128;2023-05-06T06:03:00;11.77;;;10.87;;
2944;SDS011;1482;51.398;7.128;2023-05-06T06:05:26;11.30;;;10.20;;
2944;SDS011;1482;51.398;7.128;2023-05-06T06:07:51;11.17;;;10.20;;
2944;SDS011;1482;51.398;7.128;2023-05-06T06:10:17;10.67;;;9.87;;
2944;SDS011;1482;51.398;7.128;2023-05-06T06:12:42;11.40;;;10.60;;
2944;SDS011;1482;51.398;7.128;2023-05-06T06:15:08;12.07;;;10.87;;
2944;SDS011;1482;51.398;7.128;2023-05-06T06:17:34;10.37;;;9.47;;
2944;SDS011;1482;51.398;7.128;2023-05-06T06:20:00;10.70;;;9.90;;
2944;SDS011;1482;51.398;7.128;2023-05-06T06:22:25;11.13;;;10.23;;
2944;SDS011;1482;51.398;7.128;2023-05-06T06:24:51;11.53;;;10.60;;
2944;SDS011;1482;51.398;7.128;2023-05-06T06:27:20;10.93;;;9.93;;
2944;SDS011;1482;51.398;7.128;2023-05-06T06:29:49;10.93;;;10.07;;
2944;SDS011;1482;51.398;7.128;2023-05-06T06:32:14;11.03;;;10.23;;
2944;SDS011;1482;51.398;7.128;2023-05-06T06:34:40;12.47;;;11.57;;
2944;SDS011;1482;51.398;7.128;2023-05-06T06:37:08;11.63;;;10.73;;
2944;SDS011;1482;51.398;7.128;2023-05-06T06:39:34;12.37;;;11.17;;
2944;SDS011;1482;51.398;7.128;2023-05-06T06:41:59;11.47;;;10.63;;
2944;SDS011;1482;51.398;7.128;2023-05-06T06:44:28;11.10;;;10.30;;
2944;SDS011;1482;51.398;7.128;2023-05-06T06:46:54;10.83;;;9.93;;
2944;SDS011;1482;51.398;7.128;2023-05-06T06:49:19;13.17;;;12.07;;
2944;SDS011;1482;51.398;7.128;2023-05-06T06:51:45;11.17;;;10.30;;
2944;SDS011;1482;51.398;7.128;2023-05-06T06:54:10;10.90;;;10.00;;
2944;SDS011;1482;51.398;7.128;2023-05-06T06:56:36;11.20;;;10.40;;
2944;SDS011;1482;51.398;7.128;2023-05-06T06:59:02;12.37;;;11.37;;
2944;SDS011;1482;51.398;7.128;2023-05-06T07:01:27;12.03;;;11.13;;
2944;SDS011;1482;51.398;7.128;2023-05-06T07:03:53;11.03;;;10.03;;
2944;SDS011;1482;51.398;7.128;2023-05-06T07:06:18;11.10;;;10.13;;
2944;SDS011;1482;51.398;7.128;2023-05-06T07:08:44;12.07;;;10.93;;
2944;SDS011;1482;51.398;7.128;2023-05-06T07:11:10;12.40;;;11.27;;
2944;SDS011;1482;51.398;7.128;2023-05-06T07:13:36;11.17;;;10.27;;
2944;SDS011;1482;51.398;7.128;2023-05-06T07:16:01;13.50;;;12.27;;
2944;SDS011;1482;51.398;7.128;2023-05-06T07:18:27;12.03;;;11.17;;
2944;SDS011;1482;51.398;7.128;2023-05-06T07:20:52;12.87;;;11.87;;
2944;SDS011;1482;51.398;7.128;2023-05-06T07:23:18;12.30;;;11.20;;
2944;SDS011;1482;51.398;7.128;2023-05-06T07:25:44;12.30;;;11.40;;
2944;SDS011;1482;51.398;7.128;2023-05-06T07:28:09;11.63;;;10.77;;
2944;SDS011;1482;51.398;7.128;2023-05-06T07:30:36;13.00;;;11.80;;
2944;SDS011;1482;51.398;7.128;2023-05-06T07:33:03;10.57;;;9.77;;
2944;SDS011;1482;51.398;7.128;2023-05-06T07:35:28;11.47;;;10.60;;
2944;SDS011;1482;51.398;7.128;2023-05-06T07:37:54;11.43;;;10.57;;
2944;SDS011;1482;51.398;7.128;2023-05-06T07:40:19;11.37;;;10.57;;
2944;SDS011;1482;51.398;7.128;2023-05-06T07:42:45;8.00;;;7.40;;
2944;SDS011;1482;51.398;7.128;2023-05-06T07:45:10;9.27;;;8.57;;
2944;SDS011;1482;51.398;7.128;2023-05-06T07:47:36;9.60;;;8.47;;
2944;SDS011;1482;51.398;7.128;2023-05-06T07:50:02;9.83;;;8.93;;
2944;SDS011;1482;51.398;7.128;2023-05-06T07:52:29;8.80;;;8.10;;
2944;SDS011;1482;51.398;7.128;2023-05-06T07:54:54;7.50;;;6.90;;
2944;SDS011;1482;51.398;7.128;2023-05-06T07:57:20;8.47;;;7.80;;
2944;SDS011;1482;51.398;7.128;2023-05-06T07:59:46;8.40;;;7.67;;
2944;SDS011;1482;51.398;7.128;2023-05-06T08:02:13;9.10;;;7.17;;
2944;SDS011;1482;51.398;7.128;2023-05-06T08:04:39;7.60;;;7.10;;
2944;SDS011;1482;51.398;7.128;2023-05-06T08:07:05;7.43;;;6.70;;
2944;SDS011;1482;51.398;7.128;2023-05-06T08:09:31;7.83;;;7.13;;
2944;SDS011;1482;51.398;7.128;2023-05-06T08:11:56;6.30;;;5.80;;
2944;SDS011;1482;51.398;7.128;2023-05-06T08:14:22;6.20;;;5.77;;
2944;SDS011;1482;51.398;7.128;2023-05-06T08:16:50;5.90;;;5.50;;
2944;SDS011;1482;51.398;7.128;2023-05-06T08:19:16;6.90;;;6.30;;
2944;SDS011;1482;51.398;7.128;2023-05-06T08:21:41;6.90;;;5.90;;
2944;SDS011;1482;51.398;7.128;2023-05-06T08:24:07;5.50;;;5.10;;
2944;SDS011;1482;51.398;7.128;2023-05-06T08:26:34;5.07;;;4.67;;
2944;SDS011;1482;51.398;7.128;2023-05-06T08:29:00;5.50;;;5.00;;
2944;SDS011;1482;51.398;7.128;2023-05-06T08:31:27;4.37;;;4.07;;
2944;SDS011;1482;51.398;7.128;2023-05-06T08:33:52;4.57;;;3.17;;
2944;SDS011;1482;51.398;7.128;2023-05-06T08:36:18;3.40;;;3.10;;
2944;SDS011;1482;51.398;7.128;2023-05-06T08:38:44;2.80;;;1.97;;
2944;SDS011;1482;51.398;7.128;2023-05-06T08:41:14;2.40;;;2.20;;
2944;SDS011;1482;51.398;7.128;2023-05-06T08:43:42;3.10;;;2.80;;
2944;SDS011;1482;51.398;7.128;2023-05-06T08:46:10;7.00;;;3.17;;
2944;SDS011;1482;51.398;7.128;2023-05-06T08:48:37;4.00;;;3.43;;
2944;SDS011;1482;51.398;7.128;2023-05-06T08:51:03;5.13;;;3.13;;
2944;SDS011;1482;51.398;7.128;2023-05-06T08:53:29;2.87;;;2.57;;
2944;SDS011;1482;51.398;7.128;2023-05-06T08:55:57;4.70;;;3.37;;
2944;SDS011;1482;51.398;7.128;2023-05-06T08:58:28;2.83;;;2.53;;
2944;SDS011;1482;51.398;7.128;2023-05-06T09:00:56;2.90;;;2.50;;
2944;SDS011;1482;51.398;7.128;2023-05-06T09:03:22;3.63;;;2.40;;
2944;SDS011;1482;51.398;7.128;2023-05-06T09:05:47;3.00;;;2.23;;
2944;SDS011;1482;51.398;7.128;2023-05-06T09:08:12;2.43;;;2.20;;
2944;SDS011;1482;51.398;7.128;2023-05-06T09:10:43;2.30;;;2.10;;
2944;SDS011;1482;51.398;7.128;2023-05-06T09:13:09;2.70;;;2.13;;
2944;SDS011;1482;51.398;7.128;2023-05-06T09:15:43;2.53;;;2.23;;
2944;SDS011;1482;51.398;7.128;2023-05-06T09:18:13;4.63;;;2.10;;
2944;SDS011;1482;51.398;7.128;2023-05-06T09:20:43;2.57;;;2.37;;
2944;SDS011;1482;51.398;7.128;2023-05-06T09:23:10;6.47;;;2.70;;
2944;SDS011;1482;51.398;7.128;2023-05-06T09:25:36;4.80;;;2.17;;
2944;SDS011;1482;51.398;7.128;2023-05-06T09:28:04;2.57;;;2.23;;
2944;SDS011;1482;51.398;7.128;2023-05-06T09:30:30;2.30;;;2.10;;
2944;SDS011;1482;51.398;7.128;2023-05-06T09:32:56;3.23;;;2.30;;
2944;SDS011;1482;51.398;7.128;2023-05-06T09:35:25;5.50;;;1.90;;
2944;SDS011;1482;51.398;7.128;2023-05-06T09:37:52;2.60;;;1.60;;
2944;SDS011;1482;51.398;7.128;2023-05-06T09:40:18;4.53;;;1.90;;
2944;SDS011;1482;51.398;7.128;2023-05-06T09:42:43;4.13;;;2.20;;
2944;SDS011;1482;51.398;7.128;2023-05-06T09:45:09;2.47;;;2.27;;
2944;SDS011;1482;51.398;7.128;2023-05-06T09:47:35;1.57;;;1.40;;
2944;SDS011;1482;51.398;7.128;2023-05-06T09:50:02;3.50;;;2.40;;
2944;SDS011;1482;51.398;7.128;2023-05-06T09:52:28;2.70;;;1.97;;
2944;SDS011;1482;51.398;7.128;2023-05-06T09:54:55;2.83;;;2.40;;
2944;SDS011;1482;51.398;7.128;2023-05-06T09:57:21;2.63;;;2.43;;
2944;SDS011;1482;51.398;7.128;2023-05-06T09:59:47;5.00;;;2.07;;
2944;SDS011;1482;51.398;7.128;2023-05-06T10:02:14;3.23;;;1.80;;
2944;SDS011;1482;51.398;7.128;2023-05-06T10:04:41;3.27;;;1.70;;
2944;SDS011;1482;51.398;7.128;2023-05-06T10:07:07;2.10;;;1.60;;
2944;SDS011;1482;51.398;7.128;2023-05-06T10:09:37;1.87;;;1.73;;
2944;SDS011;1482;51.398;7.128;2023-05-06T10:12:04;2.90;;;1.73;;
2944;SDS011;1482;51.398;7.128;2023-05-06T10:14:32;2.50;;;1.87;;
2944;SDS011;1482;51.398;7.128;2023-05-06T10:16:59;1.50;;;1.40;;
2944;SDS011;1482;51.398;7.128;2023-05-06T10:19:25;2.20;;;1.67;;
2944;SDS011;1482;51.398;7.128;2023-05-06T10:21:56;3.30;;;1.67;;
2944;SDS011;1482;51.398;7.128;2023-05-06T10:24:31;2.33;;;2.07;;
2944;SDS011;1482;51.398;7.128;2023-05-06T10:27:01;2.60;;;1.10;;
2944;SDS011;1482;51.398;7.128;2023-05-06T10:29:30;1.30;;;1.00;;
2944;SDS011;1482;51.398;7.128;2023-05-06T10:31:59;3.23;;;1.20;;
2944;SDS011;1482;51.398;7.128;2023-05-06T10:34:27;2.00;;;1.17;;
2944;SDS011;1482;51.398;7.128;2023-05-06T10:37:01;1.50;;;1.40;;
2944;SDS011;1482;51.398;7.128;2023-05-06T10:39:29;2.30;;;1.43;;
2944;SDS011;1482;51.398;7.128;2023-05-06T10:41:55;1.50;;;1.37;;
2944;SDS011;1482;51.398;7.128;2023-05-06T10:47:20;2.50;;;1.47;;
2944;SDS011;1482;51.398;7.128;2023-05-06T10:50:31;3.00;;;1.80;;
2944;SDS011;1482;51.398;7.128;2023-05-06T10:52:49;3.90;;;2.53;;
2944;SDS011;1482;51.398;7.128;2023-05-06T10:55:29;1.73;;;1.30;;
2944;SDS011;1482;51.398;7.128;2023-05-06T10:58:01;2.67;;;1.60;;
2944;SDS011;1482;51.398;7.128;2023-05-06T11:00:30;2.90;;;1.43;;
2944;SDS011;1482;51.398;7.128;2023-05-06T11:02:58;2.03;;;1.30;;
2944;SDS011;1482;51.398;7.128;2023-05-06T11:05:26;1.93;;;1.40;;
2944;SDS011;1482;51.398;7.128;2023-05-06T11:07:52;2.20;;;1.43;;
2944;SDS011;1482;51.398;7.128;2023-05-06T11:10:31;2.60;;;1.60;;
2944;SDS011;1482;51.398;7.128;2023-05-06T11:12:57;1.93;;;1.33;;
2944;SDS011;1482;51.398;7.128;2023-05-06T11:15:39;1.60;;;1.10;;
2944;SDS011;1482;51.398;7.128;2023-05-06T11:26:06;2.17;;;1.63;;
2944;SDS011;1482;51.398;7.128;2023-05-06T11:28:33;2.00;;;1.77;;
2944;SDS011;1482;51.398;7.128;2023-05-06T11:30:59;2.67;;;1.57;;
2944;SDS011;1482;51.398;7.128;2023-05-06T11:33:26;2.63;;;1.40;;
2944;SDS011;1482;51.398;7.128;2023-05-06T11:35:58;3.73;;;1.83;;
2944;SDS011;1482;51.398;7.128;2023-05-06T11:38:25;2.50;;;1.70;;
2944;SDS011;1482;51.398;7.128;2023-05-06T11:41:02;2.37;;;1.87;;
2944;SDS011;1482;51.398;7.128;2023-05-06T11:43:28;3.30;;;1.60;;
2944;SDS011;1482;51.398;7.128;2023-05-06T11:45:53;4.03;;;2.57;;
2944;SDS011;1482;51.398;7.128;2023-05-06T11:48:19;4.63;;;2.30;;
2944;SDS011;1482;51.398;7.128;2023-05-06T11:50:45;3.20;;;1.50;;
2944;SDS011;1482;51.398;7.128;2023-05-06T11:53:12;2.60;;;1.50;;
2944;SDS011;1482;51.398;7.128;2023-05-06T11:55:41;2.00;;;1.37;;
2944;SDS011;1482;51.398;7.128;2023-05-06T11:58:14;3.10;;;1.87;;
2944;SDS011;1482;51.398;7.128;2023-05-06T12:00:47;3.73;;;1.40;;
2944;SDS011;1482;51.398;7.128;2023-05-06T12:03:15;1.90;;;1.60;;
2944;SDS011;1482;51.398;7.128;2023-05-06T12:05:41;4.13;;;1.77;;
2944;SDS011;1482;51.398;7.128;2023-05-06T12:08:08;2.47;;;2.27;;
2944;SDS011;1482;51.398;7.128;2023-05-06T12:10:35;3.83;;;1.90;;
2944;SDS011;1482;51.398;7.128;2023-05-06T12:13:01;3.20;;;1.70;;
2944;SDS011;1482;51.398;7.128;2023-05-06T12:15:28;1.70;;;1.60;;
2944;SDS011;1482;51.398;7.128;2023-05-06T12:17:54;3.03;;;1.57;;
2944;SDS011;1482;51.398;7.128;2023-05-06T12:20:20;3.20;;;1.60;;
2944;SDS011;1482;51.398;7.128;2023-05-06T12:23:03;3.10;;;1.50;;
2944;SDS011;1482;51.398;7.128;2023-05-06T12:25:30;2.73;;;1.50;;
2944;SDS011;1482;51.398;7.128;2023-05-06T12:27:56;2.27;;;1.60;;
2944;SDS011;1482;51.398;7.128;2023-05-06T12:30:31;3.50;;;1.93;;
2944;SDS011;1482;51.398;7.128;2023-05-06T12:32:58;2.00;;;1.47;;
2944;SDS011;1482;51.398;7.128;2023-05-06T12:35:26;2.73;;;1.53;;
2944;SDS011;1482;51.398;7.128;2023-05-06T12:37:51;2.77;;;1.70;;
2944;SDS011;1482;51.398;7.128;2023-05-06T12:40:17;3.33;;;1.87;;
2944;SDS011;1482;51.398;7.128;2023-05-06T12:42:42;2.03;;;1.83;;
2944;SDS011;1482;51.398;7.128;2023-05-06T12:45:14;4.10;;;1.50;;
2944;SDS011;1482;51.398;7.128;2023-05-06T12:47:50;4.93;;;2.30;;
2944;SDS011;1482;51.398;7.128;2023-05-06T12:50:36;4.37;;;1.70;;
2944;SDS011;1482;51.398;7.128;2023-05-06T12:53:06;2.30;;;1.33;;
2944;SDS011;1482;51.398;7.128;2023-05-06T12:55:34;3.17;;;1.40;;
2944;SDS011;1482;51.398;7.128;2023-05-06T12:58:01;2.43;;;2.17;;
2944;SDS011;1482;51.398;7.128;2023-05-06T13:00:27;1.43;;;1.30;;
2944;SDS011;1482;51.398;7.128;2023-05-06T13:02:53;9.60;;;2.20;;
2944;SDS011;1482;51.398;7.128;2023-05-06T13:05:18;2.03;;;1.60;;
2944;SDS011;1482;51.398;7.128;2023-05-06T13:07:44;2.43;;;1.40;;
2944;SDS011;1482;51.398;7.128;2023-05-06T13:10:10;3.30;;;1.43;;
2944;SDS011;1482;51.398;7.128;2023-05-06T13:12:36;3.50;;;2.17;;
2944;SDS011;1482;51.398;7.128;2023-05-06T13:15:02;2.30;;;1.40;;
2944;SDS011;1482;51.398;7.128;2023-05-06T13:17:28;2.00;;;1.33;;
2944;SDS011;1482;51.398;7.128;2023-05-06T13:19:57;1.63;;;1.53;;
2944;SDS011;1482;51.398;7.128;2023-05-06T13:22:22;2.90;;;1.67;;
2944;SDS011;1482;51.398;7.128;2023-05-06T13:24:48;2.97;;;1.60;;
2944;SDS011;1482;51.398;7.128;2023-05-06T13:27:14;2.20;;;2.00;;
2944;SDS011;1482;51.398;7.128;2023-05-06T13:29:40;1.40;;;1.20;;
2944;SDS011;1482;51.398;7.128;2023-05-06T13:32:05;3.60;;;1.60;;
2944;SDS011;1482;51.398;7.128;2023-05-06T13:34:31;3.97;;;1.73;;
2944;SDS011;1482;51.398;7.128;2023-05-06T13:36:57;2.87;;;1.40;;
2944;SDS011;1482;51.398;7.128;2023-05-06T13:39:22;2.40;;;1.70;;
2944;SDS011;1482;51.398;7.128;2023-05-06T13:41:49;5.43;;;1.57;;
2944;SDS011;1482;51.398;7.128;2023-05-06T13:44:18;1.80;;;1.63;;
2944;SDS011;1482;51.398;7.128;2023-05-06T13:46:44;3.13;;;1.43;;
2944;SDS011;1482;51.398;7.128;2023-05-06T13:49:10;2.43;;;1.50;;
2944;SDS011;1482;51.398;7.128;2023-05-06T13:51:36;3.00;;;1.90;;
2944;SDS011;1482;51.398;7.128;2023-05-06T13:54:02;3.10;;;1.83;;
2944;SDS011;1482;51.398;7.128;2023-05-06T13:56:28;2.03;;;1.83;;
2944;SDS011;1482;51.398;7.128;2023-05-06T13:58:53;1.90;;;1.60;;
2944;SDS011;1482;51.398;7.128;2023-05-06T14:01:19;1.47;;;1.37;;
2944;SDS011;1482;51.398;7.128;2023-05-06T14:03:45;4.50;;;1.70;;
2944;SDS011;1482;51.398;7.128;2023-05-06T14:06:11;4.40;;;1.67;;
2944;SDS011;1482;51.398;7.128;2023-05-06T14:08:37;3.50;;;1.47;;
2944;SDS011;1482;51.398;7.128;2023-05-06T14:11:02;1.70;;;1.40;;
2944;SDS011;1482;51.398;7.128;2023-05-06T14:13:29;3.10;;;1.60;;
2944;SDS011;1482;51.398;7.128;2023-05-06T14:15:56;2.13;;;1.40;;
2944;SDS011;1482;51.398;7.128;2023-05-06T14:18:21;2.50;;;1.57;;
2944;SDS011;1482;51.398;7.128;2023-05-06T14:20:47;4.03;;;1.73;;
2944;SDS011;1482;51.398;7.128;2023-05-06T14:23:13;2.47;;;1.43;;
2944;SDS011;1482;51.398;7.128;2023-05-06T14:25:38;4.63;;;1.40;;
2944;SDS011;1482;51.398;7.128;2023-05-06T14:28:04;3.83;;;1.80;;
2944;SDS011;1482;51.398;7.128;2023-05-06T14:30:30;3.20;;;2.33;;
2944;SDS011;1482;51.398;7.128;2023-05-06T14:32:56;2.67;;;1.67;;
2944;SDS011;1482;51.398;7.128;2023-05-06T14:35:22;3.57;;;1.60;;
2944;SDS011;1482;51.398;7.128;2023-05-06T14:37:48;2.73;;;1.63;;
2944;SDS011;1482;51.398;7.128;2023-05-06T14:40:14;1.63;;;1.53;;
2944;SDS011;1482;51.398;7.128;2023-05-06T14:42:40;2.53;;;1.60;;
2944;SDS011;1482;51.398;7.128;2023-05-06T14:45:06;3.43;;;2.10;;
2944;SDS011;1482;51.398;7.128;2023-05-06T14:47:32;3.63;;;2.00;;
2944;SDS011;1482;51.398;7.128;2023-05-06T14:49:57;2.10;;;1.37;;
2944;SDS011;1482;51.398;7.128;2023-05-06T14:52:23;2.57;;;1.70;;
2944;SDS011;1482;51.398;7.128;2023-05-06T14:54:49;8.10;;;2.10;;
2944;SDS011;1482;51.398;7.128;2023-05-06T14:57:14;2.13;;;1.50;;
2944;SDS011;1482;51.398;7.128;2023-05-06T14:59:40;2.20;;;1.57;;
2944;SDS011;1482;51.398;7.128;2023-05-06T15:02:06;1.70;;;1.60;;
2944;SDS011;1482;51.398;7.128;2023-05-06T15:04:33;5.13;;;2.83;;
2944;SDS011;1482;51.398;7.128;2023-05-06T15:06:59;9.30;;;1.63;;
2944;SDS011;1482;51.398;7.128;2023-05-06T15:09:25;3.13;;;1.90;;
2944;SDS011;1482;51.398;7.128;2023-05-06T15:11:50;2.03;;;1.50;;
2944;SDS011;1482;51.398;7.128;2023-05-06T15:14:16;2.20;;;1.40;;
2944;SDS011;1482;51.398;7.128;2023-05-06T15:16:41;4.90;;;1.90;;
2944;SDS011;1482;51.398;7.128;2023-05-06T15:19:07;2.70;;;1.73;;
2944;SDS011;1482;51.398;7.128;2023-05-06T15:21:32;3.30;;;1.57;;